createdAt,value
2022-09-03T00:00:28.022Z,16.66
2022-09-03T00:03:04.432Z,16.69
2022-09-03T00:05:40.069Z,16.72
2022-09-03T00:08:13.363Z,16.72
2022-09-03T00:10:48.029Z,16.71
2022-09-03T00:13:21.310Z,16.73
2022-09-03T00:15:53.471Z,16.74
2022-09-03T00:18:24.902Z,16.74
2022-09-03T00:20:59.499Z,16.73
2022-09-03T00:23:32.153Z,16.72
2022-09-03T00:26:17.835Z,16.72
2022-09-03T00:28:52.849Z,16.73
2022-09-03T00:31:27.327Z,16.72
2022-09-03T00:33:59.759Z,16.69
2022-09-03T00:36:35.623Z,16.70
2022-09-03T00:39:03.699Z,16.69
2022-09-03T00:41:37.784Z,16.68
2022-09-03T00:44:32.140Z,16.70
2022-09-03T00:47:10.985Z,16.67
2022-09-03T00:49:49.413Z,16.68
2022-09-03T00:52:29.644Z,16.67
2022-09-03T00:55:08.217Z,16.71
2022-09-03T00:57:49.133Z,16.73
2022-09-03T01:00:20.284Z,16.74
2022-09-03T01:03:08.054Z,16.73
2022-09-03T01:05:49.116Z,16.74
2022-09-03T01:08:34.456Z,16.72
2022-09-03T01:11:13.688Z,16.71
2022-09-03T01:13:47.571Z,16.72
2022-09-03T01:16:28.715Z,16.68
2022-09-03T01:19:06.636Z,16.68
2022-09-03T01:21:52.196Z,16.65
2022-09-03T01:24:43.665Z,16.66
2022-09-03T01:27:23.384Z,16.64
2022-09-03T01:30:03.976Z,16.61
2022-09-03T01:32:38.442Z,16.60
2022-09-03T01:35:16.414Z,16.59
2022-09-03T01:37:58.707Z,16.58
2022-09-03T01:40:36.776Z,16.57
2022-09-03T01:43:23.743Z,16.53
2022-09-03T01:46:00.543Z,16.53
2022-09-03T01:48:44.061Z,16.51
2022-09-03T01:51:19.581Z,16.51
2022-09-03T01:54:07.701Z,16.48
2022-09-03T01:56:52.040Z,16.46
2022-09-03T01:59:27.565Z,16.41
2022-09-03T02:02:03.415Z,16.42
2022-09-03T02:04:36.619Z,16.40
2022-09-03T02:07:06.015Z,16.39
2022-09-03T02:09:34.189Z,16.35
2022-09-03T02:12:09.303Z,16.31
2022-09-03T02:14:37.787Z,16.30
2022-09-03T02:17:08.815Z,16.26
2022-09-03T02:19:38.115Z,16.25
2022-09-03T02:22:07.250Z,16.28
2022-09-03T02:24:35.388Z,16.24
2022-09-03T02:27:04.102Z,16.25
2022-09-03T02:29:32.672Z,16.23
2022-09-03T02:32:00.899Z,16.22
2022-09-03T02:34:31.349Z,16.23
2022-09-03T02:36:59.495Z,16.25
2022-09-03T02:39:28.956Z,16.25
2022-09-03T02:42:04.169Z,16.26
2022-09-03T02:44:34.650Z,16.23
2022-09-03T02:47:06.586Z,16.23
2022-09-03T02:49:36.754Z,16.22
2022-09-03T02:52:09.501Z,16.19
2022-09-03T02:54:39.877Z,16.20
2022-09-03T02:57:09.178Z,16.16
2022-09-03T02:59:38.065Z,16.12
2022-09-03T03:02:06.371Z,16.09
2022-09-03T03:04:36.039Z,16.06
2022-09-03T03:07:04.350Z,16.04
2022-09-03T03:09:32.425Z,16.00
2022-09-03T03:12:00.572Z,15.98
2022-09-03T03:14:28.696Z,15.97
2022-09-03T03:16:56.882Z,15.95
2022-09-03T03:19:24.991Z,15.89
2022-09-03T03:21:54.975Z,15.89
2022-09-03T03:24:23.018Z,15.87
2022-09-03T03:26:51.080Z,15.87
2022-09-03T03:29:19.913Z,15.93
2022-09-03T03:31:47.943Z,15.93
2022-09-03T03:34:16.038Z,15.89
2022-09-03T03:36:44.139Z,15.90
2022-09-03T03:39:13.657Z,15.85
2022-09-03T03:41:41.746Z,15.83
2022-09-03T03:44:10.302Z,15.82
2022-09-03T03:46:40.081Z,15.83
2022-09-03T03:49:11.825Z,15.84
2022-09-03T03:51:40.841Z,15.82
2022-09-03T03:54:08.911Z,15.85
2022-09-03T03:56:38.411Z,15.82
2022-09-03T03:59:06.510Z,15.77
2022-09-03T04:01:34.726Z,15.78
2022-09-03T04:04:03.074Z,15.77
2022-09-03T04:06:31.125Z,15.81
2022-09-03T04:08:59.252Z,15.83
2022-09-03T04:11:27.669Z,15.80
2022-09-03T04:13:57.205Z,15.85
2022-09-03T04:16:27.038Z,15.83
2022-09-03T04:18:56.448Z,15.84
2022-09-03T04:21:28.387Z,15.83
2022-09-03T04:23:57.793Z,15.87
2022-09-03T04:26:28.450Z,15.90
2022-09-03T04:28:57.976Z,15.87
2022-09-03T04:31:26.395Z,15.89
2022-09-03T04:33:55.014Z,15.92
2022-09-03T04:36:25.097Z,15.94
2022-09-03T04:38:54.639Z,15.90
2022-09-03T04:41:25.034Z,15.96
2022-09-03T04:43:54.211Z,15.99
2022-09-03T04:46:26.180Z,15.98
2022-09-03T04:48:55.711Z,15.98
2022-09-03T04:51:27.302Z,16.00
2022-09-03T04:53:57.429Z,16.02
2022-09-03T04:56:27.555Z,16.07
2022-09-03T04:58:57.466Z,16.06
2022-09-03T05:01:28.872Z,16.11
2022-09-03T05:03:58.170Z,16.15
2022-09-03T05:06:27.188Z,16.14
2022-09-03T05:08:56.571Z,16.15
2022-09-03T05:11:26.275Z,16.19
2022-09-03T05:13:56.371Z,16.14
2022-09-03T05:16:28.371Z,16.15
2022-09-03T05:18:59.653Z,16.17
2022-09-03T05:21:30.008Z,16.18
2022-09-03T05:23:58.428Z,16.18
2022-09-03T05:26:29.071Z,16.20
2022-09-03T05:28:59.519Z,16.21
2022-09-03T05:31:31.781Z,16.26
2022-09-03T05:34:02.377Z,16.27
2022-09-03T05:36:32.947Z,16.30
2022-09-03T05:39:01.546Z,16.33
2022-09-03T05:41:32.742Z,16.38
2022-09-03T05:44:01.063Z,16.42
2022-09-03T05:46:33.435Z,16.46
2022-09-03T05:49:02.472Z,16.49
2022-09-03T05:51:32.021Z,16.53
2022-09-03T05:54:00.626Z,16.57
2022-09-03T05:56:32.017Z,16.60
2022-09-03T05:59:04.812Z,16.64
2022-09-03T06:01:36.076Z,16.67
2022-09-03T06:04:05.980Z,16.70
2022-09-03T06:06:35.847Z,16.74
2022-09-03T06:09:06.977Z,16.73
2022-09-03T06:11:37.436Z,16.77
2022-09-03T06:14:08.209Z,16.81
2022-09-03T06:16:40.474Z,16.88
2022-09-03T06:19:10.292Z,16.90
2022-09-03T06:21:42.836Z,16.96
2022-09-03T06:24:13.007Z,16.98
2022-09-03T06:26:43.411Z,17.05
2022-09-03T06:29:12.119Z,17.05
2022-09-03T06:31:41.808Z,17.06
2022-09-03T06:34:10.806Z,17.07
2022-09-03T06:36:41.212Z,17.08
2022-09-03T06:39:09.533Z,17.09
2022-09-03T06:41:38.133Z,17.12
2022-09-03T06:44:11.528Z,17.15
2022-09-03T06:46:43.410Z,17.18
2022-09-03T06:49:12.486Z,17.20
2022-09-03T06:51:41.375Z,17.25
2022-09-03T06:54:11.231Z,17.28
2022-09-03T06:56:41.859Z,17.33
2022-09-03T06:59:12.005Z,17.36
2022-09-03T07:01:44.487Z,17.42
2022-09-03T07:04:19.164Z,17.47
2022-09-03T07:06:47.576Z,17.50
2022-09-03T07:09:18.386Z,17.51
2022-09-03T07:11:48.763Z,17.56
2022-09-03T07:14:18.694Z,17.63
2022-09-03T07:16:47.805Z,17.65
2022-09-03T07:19:17.795Z,17.75
2022-09-03T07:21:49.675Z,17.82
2022-09-03T07:24:21.866Z,17.90
2022-09-03T07:26:50.074Z,18.04
2022-09-03T07:29:20.646Z,18.17
2022-09-03T07:31:51.925Z,18.26
2022-09-03T07:34:26.720Z,18.26
2022-09-03T07:36:55.281Z,18.19
2022-09-03T07:39:23.582Z,18.17
2022-09-03T07:41:51.923Z,18.23
2022-09-03T07:44:20.594Z,18.23
2022-09-03T07:46:51.471Z,18.28
2022-09-03T07:49:22.436Z,18.32
2022-09-03T07:51:54.703Z,18.40
2022-09-03T07:54:24.186Z,18.53
2022-09-03T07:56:52.415Z,18.61
2022-09-03T07:59:21.384Z,18.67
2022-09-03T08:01:50.850Z,18.76
2022-09-03T08:04:19.028Z,18.82
2022-09-03T08:06:48.403Z,18.89
2022-09-03T08:09:16.781Z,19.01
2022-09-03T08:11:45.365Z,19.10
2022-09-03T08:14:15.558Z,19.14
2022-09-03T08:16:45.999Z,19.21
2022-09-03T08:19:14.874Z,19.24
2022-09-03T08:21:43.029Z,19.31
2022-09-03T08:24:13.480Z,19.35
2022-09-03T08:26:47.693Z,19.40
2022-09-03T08:29:19.538Z,19.43
2022-09-03T08:31:47.738Z,19.49
2022-09-03T08:34:17.695Z,19.49
2022-09-03T08:36:47.291Z,19.50
2022-09-03T08:39:17.172Z,19.54
2022-09-03T08:42:27.263Z,19.52
2022-09-03T08:44:58.692Z,19.52
2022-09-03T08:47:34.156Z,19.52
2022-09-03T08:50:09.237Z,19.54
2022-09-03T08:52:42.643Z,19.58
2022-09-03T08:55:21.746Z,19.55
2022-09-03T08:57:52.205Z,19.56
2022-09-03T09:00:20.878Z,19.60
2022-09-03T09:02:59.455Z,19.61
2022-09-03T09:05:42.625Z,19.64
2022-09-03T09:08:21.949Z,19.69
2022-09-03T09:11:02.225Z,19.65
2022-09-03T09:13:40.600Z,19.79
2022-09-03T09:16:17.136Z,19.79
2022-09-03T09:18:57.735Z,19.73
2022-09-03T09:21:31.119Z,19.73
2022-09-03T09:24:04.245Z,19.80
2022-09-03T09:26:34.902Z,19.88
2022-09-03T09:29:07.958Z,19.97
2022-09-03T09:31:39.853Z,20.00
2022-09-03T09:34:09.331Z,20.09
2022-09-03T09:36:43.861Z,20.04
2022-09-03T09:39:15.862Z,20.17
2022-09-03T09:41:57.709Z,20.19
2022-09-03T09:44:27.970Z,20.24
2022-09-03T09:47:06.451Z,20.26
2022-09-03T09:49:36.323Z,20.25
2022-09-03T09:52:09.002Z,20.24
2022-09-03T09:54:37.042Z,20.26
2022-09-03T09:57:08.552Z,20.39
2022-09-03T09:59:38.117Z,20.39
2022-09-03T10:02:22.018Z,20.43
2022-09-03T10:04:50.568Z,20.48
2022-09-03T10:07:30.147Z,20.50
2022-09-03T10:10:02.801Z,20.56
2022-09-03T10:12:38.069Z,20.56
2022-09-03T10:15:16.744Z,20.57
2022-09-03T10:17:58.816Z,20.53
2022-09-03T10:20:37.334Z,20.65
2022-09-03T10:23:15.330Z,20.75
2022-09-03T10:25:58.025Z,20.65
2022-09-03T10:28:30.264Z,20.63
2022-09-03T10:31:11.337Z,20.54
2022-09-03T10:33:44.088Z,20.59
2022-09-03T10:36:20.092Z,20.67
2022-09-03T10:38:54.587Z,20.69
2022-09-03T10:41:39.242Z,20.74
2022-09-03T10:44:23.515Z,20.87
2022-09-03T10:47:03.896Z,20.93
2022-09-03T10:49:50.565Z,20.97
2022-09-03T10:52:28.602Z,20.98
2022-09-03T10:55:23.494Z,20.98
2022-09-03T10:58:02.397Z,21.00
2022-09-03T11:00:35.449Z,21.04
2022-09-03T11:03:30.504Z,21.00
2022-09-03T11:06:06.335Z,20.99
2022-09-03T11:08:38.968Z,21.02
2022-09-03T11:11:14.689Z,21.08
2022-09-03T11:13:48.300Z,21.14
2022-09-03T11:16:22.186Z,21.15
2022-09-03T11:18:52.851Z,21.14
2022-09-03T11:21:24.796Z,21.04
2022-09-03T11:24:02.476Z,21.09
2022-09-03T11:26:31.455Z,21.02
2022-09-03T11:29:04.118Z,21.00
2022-09-03T11:31:43.735Z,21.03
2022-09-03T11:34:23.317Z,21.00
2022-09-03T11:37:08.713Z,20.97
2022-09-03T11:39:40.571Z,20.88
2022-09-03T11:42:13.289Z,20.88
2022-09-03T11:44:47.917Z,20.88
2022-09-03T11:47:25.985Z,20.81
2022-09-03T11:50:06.058Z,20.79
2022-09-03T11:52:40.697Z,20.74
2022-09-03T11:55:10.045Z,20.64
2022-09-03T11:57:43.405Z,20.63
2022-09-03T12:00:14.301Z,20.58
2022-09-03T12:02:49.788Z,20.54
2022-09-03T12:05:27.734Z,20.37
2022-09-03T12:08:35.671Z,19.99
2022-09-03T12:11:25.764Z,19.75
2022-09-03T12:14:00.067Z,19.44
2022-09-03T12:17:00.225Z,19.28
2022-09-03T12:19:38.708Z,18.89
2022-09-03T12:22:07.032Z,18.67
2022-09-03T12:24:37.803Z,18.43
2022-09-03T12:27:06.751Z,18.43
2022-09-03T12:29:34.848Z,18.33
2022-09-03T12:32:10.223Z,18.24
2022-09-03T12:34:39.540Z,18.16
2022-09-03T12:38:04.049Z,17.83
2022-09-03T12:40:19.396Z,17.93
2022-09-03T12:42:47.834Z,17.86
2022-09-03T12:45:21.701Z,17.82
2022-09-03T12:47:50.058Z,17.83
2022-09-03T12:50:21.826Z,17.86
2022-09-03T12:52:53.541Z,17.83
2022-09-03T12:55:30.155Z,17.80
2022-09-03T12:58:04.605Z,17.80
2022-09-03T13:00:35.843Z,17.81
2022-09-03T13:03:08.595Z,17.79
2022-09-03T13:06:01.908Z,17.93
2022-09-03T13:08:34.484Z,18.00
2022-09-03T13:11:05.716Z,18.12
2022-09-03T13:13:37.101Z,18.27
2022-09-03T13:16:19.429Z,18.50
2022-09-03T13:18:54.923Z,18.65
2022-09-03T13:21:37.729Z,18.71
2022-09-03T13:24:30.398Z,18.91
2022-09-03T13:27:08.449Z,18.97
2022-09-03T13:29:49.308Z,19.07
2022-09-03T13:32:34.317Z,19.04
2022-09-03T13:35:09.129Z,19.11
2022-09-03T13:37:41.644Z,19.00
2022-09-03T13:40:19.383Z,18.96
2022-09-03T13:42:55.472Z,18.98
2022-09-03T13:45:31.515Z,18.95
2022-09-03T13:48:25.236Z,18.94
2022-09-03T13:51:01.033Z,19.22
2022-09-03T13:53:42.460Z,19.32
2022-09-03T13:56:21.590Z,19.50
2022-09-03T13:58:54.476Z,19.47
2022-09-03T14:01:28.471Z,19.48
2022-09-03T14:04:00.955Z,19.47
2022-09-03T14:06:42.080Z,19.47
2022-09-03T14:09:21.728Z,19.55
2022-09-03T14:11:56.102Z,19.52
2022-09-03T14:14:39.060Z,19.53
2022-09-03T14:17:15.426Z,19.53
2022-09-03T14:19:49.806Z,19.57
2022-09-03T14:22:24.307Z,19.60
2022-09-03T14:24:59.331Z,19.57
2022-09-03T14:27:29.272Z,19.60
2022-09-03T14:30:02.849Z,19.63
2022-09-03T14:32:41.329Z,19.58
2022-09-03T14:35:36.865Z,19.65
2022-09-03T14:38:30.301Z,19.67
2022-09-03T14:41:06.372Z,19.63
2022-09-03T14:43:58.391Z,19.70
2022-09-03T14:46:49.905Z,19.62
2022-09-03T14:49:44.938Z,19.68
2022-09-03T14:52:32.676Z,19.73
2022-09-03T14:55:14.460Z,19.78
2022-09-03T14:58:08.237Z,19.88
2022-09-03T15:00:48.481Z,19.88
2022-09-03T15:04:00.176Z,19.82
2022-09-03T15:06:42.041Z,19.86
2022-09-03T15:09:25.555Z,19.91
2022-09-03T15:11:58.871Z,19.94
2022-09-03T15:14:36.683Z,19.99
2022-09-03T15:17:29.345Z,20.09
2022-09-03T15:20:11.810Z,20.20
2022-09-03T15:23:02.834Z,20.27
2022-09-03T15:25:42.599Z,20.28
2022-09-03T15:28:16.411Z,20.29
2022-09-03T15:30:53.277Z,20.32
2022-09-03T15:33:28.627Z,20.33
2022-09-03T15:36:08.006Z,20.24
2022-09-03T15:38:42.650Z,20.24
2022-09-03T15:41:22.714Z,20.23
2022-09-03T15:43:52.499Z,20.26
2022-09-03T15:46:48.423Z,20.32
2022-09-03T15:49:28.978Z,20.33
2022-09-03T15:52:17.244Z,20.34
2022-09-03T15:54:54.464Z,20.31
2022-09-03T15:57:30.033Z,20.33
2022-09-03T16:00:04.294Z,20.29
2022-09-03T16:02:43.974Z,20.24
2022-09-03T16:05:18.091Z,20.23
2022-09-03T16:08:07.880Z,20.18
2022-09-03T16:10:51.057Z,20.16
2022-09-03T16:13:36.967Z,20.15
2022-09-03T16:16:08.020Z,20.11
2022-09-03T16:18:43.170Z,20.09
2022-09-03T16:21:25.794Z,20.12
2022-09-03T16:23:59.894Z,20.10
2022-09-03T16:26:33.748Z,20.05
2022-09-03T16:29:08.218Z,20.01
2022-09-03T16:31:48.041Z,20.01
2022-09-03T16:34:26.821Z,20.00
2022-09-03T16:37:05.474Z,20.01
2022-09-03T16:39:48.260Z,19.98
2022-09-03T16:42:28.177Z,20.04
2022-09-03T16:45:07.917Z,20.05
2022-09-03T16:47:48.575Z,20.10
2022-09-03T16:50:31.834Z,20.15
2022-09-03T16:53:12.725Z,20.18
2022-09-03T16:55:59.377Z,20.22
2022-09-03T16:58:35.322Z,20.22
2022-09-03T17:01:15.956Z,20.18
2022-09-03T17:03:59.126Z,20.11
2022-09-03T17:06:42.704Z,20.07
2022-09-03T17:09:26.014Z,20.05
2022-09-03T17:12:03.482Z,20.03
2022-09-03T17:15:00.423Z,19.97
2022-09-03T17:17:41.812Z,19.95
2022-09-03T17:20:16.369Z,19.84
2022-09-03T17:23:00.639Z,19.87
2022-09-03T17:25:35.619Z,19.84
2022-09-03T17:28:24.813Z,19.80
2022-09-03T17:30:58.248Z,19.76
2022-09-03T17:33:50.610Z,19.75
2022-09-03T17:36:24.414Z,19.68
2022-09-03T17:39:36.193Z,19.63
2022-09-03T17:42:08.958Z,19.55
2022-09-03T17:44:51.350Z,19.51
2022-09-03T17:47:42.635Z,19.42
2022-09-03T17:50:19.095Z,19.42
2022-09-03T17:52:52.424Z,19.37
2022-09-03T17:55:31.140Z,19.30
2022-09-03T17:58:07.689Z,19.28
2022-09-03T18:00:42.899Z,19.24
2022-09-03T18:03:18.227Z,19.18
2022-09-03T18:05:54.794Z,19.11
2022-09-03T18:08:32.081Z,19.08
2022-09-03T18:11:10.148Z,19.05
2022-09-03T18:13:51.473Z,18.99
2022-09-03T18:16:26.495Z,18.95
2022-09-03T18:19:01.690Z,18.88
2022-09-03T18:21:53.930Z,18.82
2022-09-03T18:24:51.124Z,18.82
2022-09-03T18:27:44.588Z,18.74
2022-09-03T18:30:33.099Z,18.71
2022-09-03T18:33:18.780Z,18.63
2022-09-03T18:36:05.707Z,18.62
2022-09-03T18:38:53.092Z,18.52
2022-09-03T18:42:09.874Z,18.49
2022-09-03T18:45:21.491Z,18.41
2022-09-03T18:48:22.347Z,18.39
2022-09-03T18:51:17.039Z,18.35
2022-09-03T18:54:11.498Z,18.31
2022-09-03T18:57:03.442Z,18.24
2022-09-03T19:00:07.530Z,18.19
2022-09-03T19:03:05.116Z,18.14
2022-09-03T19:06:01.480Z,18.10
2022-09-03T19:08:55.689Z,18.02
2022-09-03T19:11:50.209Z,18.00
2022-09-03T19:14:48.607Z,17.94
2022-09-03T19:17:41.856Z,17.87
2022-09-03T19:20:32.934Z,17.81
2022-09-03T19:23:18.638Z,17.80
2022-09-03T19:26:04.470Z,17.74
2022-09-03T19:28:54.058Z,17.71
2022-09-03T19:31:56.793Z,17.65
2022-09-03T19:35:05.004Z,17.63
2022-09-03T19:37:55.911Z,17.55
2022-09-03T19:41:12.053Z,17.54
2022-09-03T19:44:11.480Z,17.51
2022-09-03T19:47:05.579Z,17.47
2022-09-03T19:50:13.551Z,17.44
2022-09-03T19:53:07.615Z,17.37
2022-09-03T19:55:57.834Z,17.36
2022-09-03T19:58:47.497Z,17.35
2022-09-03T20:01:33.531Z,17.29
2022-09-03T20:04:24.334Z,17.28
2022-09-03T20:07:11.092Z,17.28
2022-09-03T20:10:01.261Z,17.24
2022-09-03T20:12:34.858Z,17.23
2022-09-03T20:15:04.971Z,17.19
2022-09-03T20:17:41.064Z,17.16
2022-09-03T20:20:17.243Z,17.13
2022-09-03T20:22:57.048Z,17.08
2022-09-03T20:25:41.796Z,17.13
2022-09-03T20:28:25.050Z,17.09
2022-09-03T20:31:00.351Z,17.10
2022-09-03T20:33:42.170Z,17.04
2022-09-03T20:36:21.402Z,17.04
2022-09-03T20:39:31.137Z,17.04
2022-09-03T20:42:15.064Z,17.05
2022-09-03T20:44:57.133Z,17.03
2022-09-03T20:48:00.037Z,17.07
2022-09-03T20:50:43.273Z,17.01
2022-09-03T20:53:44.681Z,17.05
2022-09-03T20:56:18.610Z,17.05
2022-09-03T20:58:55.511Z,17.02
2022-09-03T21:01:31.872Z,17.07
2022-09-03T21:04:13.959Z,17.03
2022-09-03T21:06:49.612Z,16.99
2022-09-03T21:09:24.247Z,16.99
2022-09-03T21:12:01.705Z,17.00
2022-09-03T21:14:35.876Z,16.95
2022-09-03T21:17:29.589Z,16.97
2022-09-03T21:20:13.102Z,16.98
2022-09-03T21:22:52.730Z,16.96
2022-09-03T21:25:25.354Z,17.00
2022-09-03T21:27:59.100Z,17.00
2022-09-03T21:30:31.149Z,17.03
2022-09-03T21:33:05.752Z,17.03
2022-09-03T21:35:37.276Z,17.06
2022-09-03T21:38:08.526Z,17.06
2022-09-03T21:40:46.777Z,17.05
2022-09-03T21:43:20.524Z,17.06
2022-09-03T21:45:58.475Z,17.06
2022-09-03T21:48:35.204Z,17.04
2022-09-03T21:51:08.392Z,17.05
2022-09-03T21:53:43.233Z,17.02
2022-09-03T21:56:32.851Z,17.04
2022-09-03T21:59:10.289Z,17.04
2022-09-03T22:01:50.248Z,17.05
2022-09-03T22:04:18.704Z,17.03
2022-09-03T22:06:54.672Z,17.00
2022-09-03T22:09:30.119Z,16.96
2022-09-03T22:12:07.448Z,16.92
2022-09-03T22:14:43.176Z,16.92
2022-09-03T22:17:18.559Z,16.92
2022-09-03T22:19:46.715Z,16.89
2022-09-03T22:22:22.662Z,16.88
2022-09-03T22:24:58.875Z,16.88
2022-09-03T22:27:35.593Z,16.81
2022-09-03T22:30:07.509Z,16.83
2022-09-03T22:32:49.867Z,16.82
2022-09-03T22:35:42.840Z,16.80
2022-09-03T22:38:38.067Z,16.78
2022-09-03T22:41:21.778Z,16.74
2022-09-03T22:43:58.687Z,16.71
2022-09-03T22:46:34.292Z,16.68
2022-09-03T22:49:27.226Z,16.68
2022-09-03T22:52:08.977Z,16.64
2022-09-03T22:54:53.593Z,16.60
2022-09-03T22:57:25.249Z,16.59
2022-09-03T23:00:05.289Z,16.56
2022-09-03T23:02:33.672Z,16.52
2022-09-03T23:05:08.108Z,16.51
2022-09-03T23:07:49.491Z,16.46
2022-09-03T23:10:25.784Z,16.45
2022-09-03T23:13:04.754Z,16.42
2022-09-03T23:15:35.707Z,16.40
2022-09-03T23:18:08.939Z,16.38
2022-09-03T23:20:42.382Z,16.32
2022-09-03T23:23:18.019Z,16.28
2022-09-03T23:25:50.741Z,16.28
2022-09-03T23:28:24.176Z,16.27
2022-09-03T23:30:52.884Z,16.21
2022-09-03T23:33:21.068Z,16.20
2022-09-03T23:36:03.232Z,16.15
2022-09-03T23:38:42.119Z,16.13
2022-09-03T23:41:22.915Z,16.10
2022-09-03T23:44:11.816Z,16.08
2022-09-03T23:46:54.763Z,16.04
2022-09-03T23:49:34.673Z,16.01
2022-09-03T23:52:23.626Z,15.97
2022-09-03T23:55:02.338Z,15.97
2022-09-03T23:57:39.445Z,15.91
